Time;durP1;ratioP1;P1;durP2;ratioP2;P2;SDS_P1;SDS_P2;PMS_P1;PMS_P2;Temp;Humidity;BMP_temperature;BMP_pressure;BME280_temperature;BME280_humidity;BME280_pressure;Samples;Min_cycle;Max_cycle;Signal;HPM_P1;HPM_P2
2023/11/21 00:01:37;;;;;;;8.00;1.30;;;11.30;99.90;;;10.74;100.00;101299.00;4168341;28;20026;-81
2023/11/21 00:03:37;;;;;;;6.95;1.48;;;11.40;99.90;;;10.79;100.00;101298.56;4168615;28;20022;-80
2023/11/21 00:05:38;;;;;;;15.70;2.00;;;11.40;99.90;;;10.82;100.00;101301.75;4172223;28;20028;-81
2023/11/21 00:07:40;;;;;;;4.57;1.65;;;11.40;99.90;;;10.79;100.00;101299.41;4185007;28;20033;-80
2023/11/21 00:09:41;;;;;;;8.45;1.50;;;11.40;99.90;;;10.71;100.00;101296.66;4169094;28;20017;-80
2023/11/21 00:11:43;;;;;;;8.88;1.58;;;11.40;99.90;;;10.63;100.00;101299.19;4167516;28;20523;-80
2023/11/21 00:13:45;;;;;;;8.98;2.40;;;11.30;99.90;;;10.47;100.00;101293.66;4168351;28;20022;-80
2023/11/21 00:15:46;;;;;;;3.60;1.13;;;11.20;99.90;;;10.41;100.00;101310.88;4173049;28;20107;-82
2023/11/21 00:17:47;;;;;;;8.65;1.50;;;11.10;99.90;;;10.43;100.00;101306.28;4184041;28;20032;-80
2023/11/21 00:19:47;;;;;;;5.00;1.45;;;11.10;99.90;;;10.52;100.00;101307.25;4171792;28;20059;-80
2023/11/21 00:21:48;;;;;;;6.15;1.52;;;11.10;99.90;;;10.57;100.00;101314.75;4171807;28;20469;-80
2023/11/21 00:23:49;;;;;;;12.77;1.65;;;11.10;99.90;;;10.57;100.00;101311.13;4170474;28;20030;-80
2023/11/21 00:25:50;;;;;;;8.27;1.20;;;11.20;99.90;;;10.57;100.00;101308.47;4160131;28;20045;-80
2023/11/21 00:27:51;;;;;;;6.78;1.40;;;11.20;99.90;;;10.62;100.00;101308.06;4166041;28;20048;-79
2023/11/21 00:29:52;;;;;;;5.13;1.63;;;11.20;99.90;;;10.65;100.00;101305.16;4154059;28;20033;-80
2023/11/21 00:31:53;;;;;;;5.13;1.40;;;11.20;99.90;;;10.71;100.00;101317.75;4154313;28;20064;-81
2023/11/21 00:33:55;;;;;;;7.80;1.67;;;11.30;99.90;;;10.67;100.00;101312.91;4171398;28;20040;-81
2023/11/21 00:35:56;;;;;;;8.82;1.98;;;11.30;99.90;;;10.63;100.00;101309.75;4178273;28;20034;-80
2023/11/21 00:37:58;;;;;;;7.85;1.55;;;11.30;99.90;;;10.64;100.00;101315.81;4168542;28;20037;-81
2023/11/21 00:39:59;;;;;;;7.70;1.58;;;11.30;99.90;;;10.63;100.00;101320.28;4170053;28;20036;-80
2023/11/21 00:42:00;;;;;;;6.00;1.75;;;11.20;99.90;;;10.63;100.00;101307.09;4184827;28;20480;-80
2023/11/21 00:44:00;;;;;;;4.72;1.83;;;11.30;99.90;;;10.69;100.00;101317.09;4186428;28;20388;-80
2023/11/21 00:46:08;;;;;;;6.35;1.27;;;11.30;99.90;;;10.69;100.00;101318.88;4170163;28;20069;-81
2023/11/21 00:48:08;;;;;;;11.55;1.60;;;11.30;99.90;;;10.67;100.00;101324.28;4168447;28;20047;-81
2023/11/21 00:50:09;;;;;;;11.15;1.98;;;11.30;99.90;;;10.73;100.00;101330.81;4187778;28;20409;-81
2023/11/21 00:52:10;;;;;;;7.28;1.25;;;11.30;99.90;;;10.74;100.00;101328.03;4186143;28;20029;-80
2023/11/21 00:54:11;;;;;;;7.25;1.60;;;11.30;99.90;;;10.73;100.00;101329.00;4170075;28;20029;-81
2023/11/21 00:56:13;;;;;;;6.30;1.67;;;11.30;99.90;;;10.74;100.00;101329.84;4161247;28;20111;-81
2023/11/21 00:58:14;;;;;;;8.27;1.20;;;11.30;99.90;;;10.76;100.00;101335.78;4170914;28;20457;-81
2023/11/21 01:00:17;;;;;;;11.68;1.55;;;11.40;99.90;;;10.76;100.00;101335.78;4184520;28;20026;-80
2023/11/21 01:02:18;;;;;;;5.65;1.00;;;11.40;99.90;;;10.82;100.00;101340.50;4169871;28;20029;-80
2023/11/21 01:04:19;;;;;;;9.35;2.45;;;11.40;99.90;;;10.79;100.00;101335.50;4183496;28;20446;-80
2023/11/21 01:06:19;;;;;;;5.03;0.90;;;11.40;99.90;;;10.76;100.00;101339.28;4177792;28;20036;-80
2023/11/21 01:08:21;;;;;;;5.20;1.48;;;11.40;99.90;;;10.82;100.00;101345.78;4183086;28;20021;-81
2023/11/21 01:10:22;;;;;;;10.32;1.73;;;11.40;99.90;;;10.82;100.00;101343.13;4170986;28;20057;-79
2023/11/21 01:12:24;;;;;;;6.60;1.63;;;11.50;99.90;;;10.86;100.00;101340.09;4169892;28;20024;-80
2023/11/21 01:14:26;;;;;;;7.18;1.63;;;11.40;99.90;;;10.85;100.00;101333.13;4170711;28;20108;-81
2023/11/21 01:16:27;;;;;;;5.35;1.00;;;11.50;99.90;;;10.84;100.00;101346.50;4181255;28;20017;-80
2023/11/21 01:18:29;;;;;;;8.65;1.70;;;11.50;99.90;;;10.77;100.00;101340.94;4180041;28;20044;-81
2023/11/21 01:20:29;;;;;;;5.85;0.90;;;11.40;99.90;;;10.77;100.00;101338.31;4170756;28;20021;-80
2023/11/21 01:22:30;;;;;;;14.10;1.58;;;11.40;99.90;;;10.73;100.00;101334.28;4170871;28;20473;-81
2023/11/21 01:24:31;;;;;;;11.27;1.23;;;11.40;99.90;;;10.68;100.00;101336.53;4170641;28;20017;-81
2023/11/21 01:26:32;;;;;;;5.82;1.13;;;11.30;99.90;;;10.62;100.00;101337.09;4181726;28;20025;-80
2023/11/21 01:28:33;;;;;;;7.40;1.75;;;11.30;99.90;;;10.52;100.00;101328.34;4176896;28;20025;-80
2023/11/21 01:30:35;;;;;;;6.35;2.47;;;11.30;99.90;;;10.44;100.00;101341.41;4152357;28;20030;-79
2023/11/21 01:32:37;;;;;;;7.20;1.30;;;11.20;99.90;;;10.49;100.00;101353.19;4153061;28;20018;-81
2023/11/21 01:34:38;;;;;;;5.05;1.08;;;11.10;99.90;;;10.52;100.00;101354.72;4169494;28;20037;-81
2023/11/21 01:36:38;;;;;;;3.80;1.00;;;11.10;99.90;;;10.56;100.00;101364.03;4170570;28;20492;-82
2023/11/21 01:38:39;;;;;;;5.72;1.50;;;11.10;99.90;;;10.53;100.00;101357.22;4170548;28;20399;-80
2023/11/21 01:40:40;;;;;;;4.20;0.98;;;11.10;99.90;;;10.48;100.00;101359.44;4170381;28;20030;-81
2023/11/21 01:42:43;;;;;;;6.30;1.70;;;11.10;99.90;;;10.39;100.00;101351.56;4170482;28;20030;-80
2023/11/21 01:44:44;;;;;;;6.55;1.63;;;11.00;99.90;;;10.34;100.00;101364.31;4162297;28;20124;-81
2023/11/21 01:46:47;;;;;;;3.97;1.15;;;11.00;99.90;;;10.26;100.00;101361.53;4174125;28;20024;-80
2023/11/21 01:48:49;;;;;;;6.78;1.45;;;10.90;99.90;;;10.18;100.00;101361.41;4170318;28;20519;-80
2023/11/21 01:50:50;;;;;;;6.65;1.25;;;10.90;99.90;;;10.07;100.00;101361.50;4152649;28;20034;-81
2023/11/21 01:52:52;;;;;;;5.38;1.55;;;10.80;99.90;;;9.99;100.00;101363.03;4165235;28;20053;-80
2023/11/21 01:54:54;;;;;;;9.18;1.38;;;10.70;99.90;;;9.95;100.00;101364.25;4169227;28;20038;-80
2023/11/21 01:56:55;;;;;;;6.45;1.20;;;10.60;99.90;;;9.93;100.00;101355.66;4169093;28;20022;-80
2023/11/21 01:58:56;;;;;;;8.07;1.40;;;10.50;99.90;;;9.98;100.00;101371.91;4170145;28;20091;-80
2023/11/21 02:00:58;;;;;;;5.88;1.27;;;10.60;99.90;;;9.93;100.00;101371.47;4170176;28;20089;-81
2023/11/21 02:02:59;;;;;;;4.50;1.20;;;10.50;99.90;;;9.90;100.00;101373.56;4170102;28;20032;-80
2023/11/21 02:05:00;;;;;;;7.90;1.65;;;10.60;99.90;;;9.81;100.00;101372.56;4170036;28;20024;-80
2023/11/21 02:07:01;;;;;;;10.20;2.15;;;10.50;99.90;;;9.92;100.00;101368.97;4165874;28;20045;-81
2023/11/21 02:09:04;;;;;;;9.77;2.25;;;10.50;99.90;;;9.90;100.00;101369.13;4152532;28;20504;-81
2023/11/21 02:11:06;;;;;;;4.85;2.00;;;10.50;99.90;;;9.92;100.00;101369.81;4170069;28;20037;-81
2023/11/21 02:13:07;;;;;;;5.13;1.58;;;10.50;99.90;;;9.88;100.00;101370.22;4169666;28;20067;-81
2023/11/21 02:15:16;;;;;;;6.78;1.23;;;10.50;99.90;;;9.84;100.00;101374.09;4169992;28;20033;-81
2023/11/21 02:17:18;;;;;;;5.90;2.10;;;10.40;99.90;;;9.67;100.00;101367.69;4168570;28;20052;-80
2023/11/21 02:19:22;;;;;;;7.82;1.90;;;10.40;99.90;;;9.63;100.00;101374.19;4178967;28;20036;-80
2023/11/21 02:21:25;;;;;;;7.57;1.48;;;10.40;99.90;;;9.55;100.00;101363.50;4168819;28;20403;-81
2023/11/21 02:23:28;;;;;;;9.75;1.88;;;10.30;99.90;;;9.54;100.00;101367.09;4168703;28;20025;-81
2023/11/21 02:25:33;;;;;;;12.32;3.22;;;10.20;99.90;;;9.57;100.00;101364.19;4168718;28;20480;-81
2023/11/21 02:27:33;;;;;;;;;;;10.20;99.90;;;9.58;100.00;101368.50;4168720;28;20017;-81
2023/11/21 02:29:34;;;;;;;7.95;1.25;;;10.20;99.90;;;9.61;100.00;101370.03;4168665;28;19944;-80
2023/11/21 02:31:35;;;;;;;7.90;1.60;;;10.30;99.90;;;9.58;100.00;101370.28;4152256;28;20056;-80
2023/11/21 02:33:37;;;;;;;6.85;1.40;;;10.20;99.90;;;9.61;100.00;101368.22;4169673;28;20033;-80
2023/11/21 02:35:37;;;;;;;6.40;1.40;;;10.20;99.90;;;9.64;100.00;101361.84;4168377;28;20059;-80
2023/11/21 02:37:38;;;;;;;9.07;1.77;;;10.20;99.90;;;9.56;100.00;101364.34;4168293;28;20034;-80
2023/11/21 02:39:39;;;;;;;2.88;1.23;;;10.20;99.90;;;9.52;100.00;101371.66;4169630;28;20021;-80
2023/11/21 02:41:40;;;;;;;4.85;1.63;;;10.20;99.90;;;9.44;100.00;101371.47;4169517;28;20037;-80
2023/11/21 02:43:41;;;;;;;4.18;1.30;;;10.10;99.90;;;9.38;100.00;101379.91;4152166;28;20030;-79
2023/11/21 02:45:42;;;;;;;8.85;2.03;;;10.10;99.90;;;9.43;100.00;101372.47;4173484;28;20053;-80
2023/11/21 02:47:45;;;;;;;6.03;1.77;;;10.00;99.90;;;9.37;100.00;101379.09;4184651;28;20047;-81
2023/11/21 02:49:46;;;;;;;3.90;1.55;;;10.10;99.90;;;9.33;100.00;101395.28;4184207;28;20513;-80
2023/11/21 02:51:46;;;;;;;6.90;2.05;;;10.00;99.90;;;9.27;100.00;101390.53;4155382;28;20026;-80
2023/11/21 02:53:47;;;;;;;7.82;2.08;;;10.00;99.90;;;9.24;100.00;101406.59;4164538;28;20034;-81
2023/11/21 02:55:48;;;;;;;7.85;1.83;;;9.90;99.90;;;9.18;100.00;101394.78;4152008;28;20037;-80
2023/11/21 02:57:49;;;;;;;7.53;1.40;;;9.90;99.90;;;9.21;100.00;101396.31;4151551;28;20030;-81
2023/11/21 02:59:50;;;;;;;12.10;2.13;;;9.90;99.90;;;9.25;100.00;101395.09;4169146;28;20037;-81
2023/11/21 03:01:50;;;;;;;10.50;2.15;;;9.90;99.90;;;9.25;100.00;101393.31;4168049;28;20033;-82
2023/11/21 03:03:52;;;;;;;8.23;2.42;;;9.90;99.90;;;9.24;100.00;101390.81;4169183;28;20401;-81
2023/11/21 03:05:53;;;;;;;6.85;1.80;;;9.90;99.90;;;9.22;100.00;101392.75;4151570;28;20436;-81
2023/11/21 03:07:53;;;;;;;5.30;1.38;;;9.90;99.90;;;9.33;100.00;101390.84;4169049;28;20014;-80
2023/11/21 03:09:54;;;;;;;10.77;2.03;;;10.00;99.90;;;9.35;100.00;101398.59;4169092;28;20477;-81
2023/11/21 03:11:55;;;;;;;7.70;1.73;;;10.00;99.90;;;9.45;100.00;101394.22;4167976;28;20411;-80
2023/11/21 03:13:56;;;;;;;5.93;1.73;;;10.10;99.90;;;9.48;100.00;101396.59;4168874;28;20029;-80
2023/11/21 03:15:57;;;;;;;5.00;1.83;;;10.10;99.90;;;9.51;100.00;101404.22;4167829;28;20029;-80
2023/11/21 03:17:58;;;;;;;6.90;2.20;;;10.10;99.90;;;9.57;100.00;101398.44;4151455;28;20044;-81
2023/11/21 03:19:59;;;;;;;7.80;1.88;;;10.20;99.90;;;9.69;100.00;101399.16;4168905;28;20057;-80
2023/11/21 03:22:00;;;;;;;6.18;1.90;;;10.30;99.90;;;9.65;100.00;101395.09;4168886;28;20032;-80
2023/11/21 03:24:01;;;;;;;7.32;2.15;;;10.30;99.90;;;9.60;100.00;101395.53;4168907;28;20025;-80
2023/11/21 03:26:03;;;;;;;8.38;1.45;;;10.30;99.90;;;9.48;100.00;101393.94;4168804;28;20404;-81
2023/11/21 03:28:04;;;;;;;9.43;1.80;;;10.20;99.90;;;9.45;100.00;101400.31;4167548;28;20053;-81
2023/11/21 03:30:08;;;;;;;9.38;2.08;;;10.20;99.90;;;9.38;100.00;101398.34;4174102;28;20055;-80
2023/11/21 03:32:09;;;;;;;5.10;1.45;;;10.10;99.90;;;9.34;100.00;101404.84;4159458;28;20105;-80
2023/11/21 03:34:19;;;;;;;7.50;2.25;;;10.10;99.90;;;9.30;100.00;101404.28;4184261;28;20472;-80
2023/11/21 03:36:20;;;;;;;10.23;1.60;;;10.00;99.90;;;9.44;100.00;101408.34;4184179;28;20573;-79
2023/11/21 03:38:21;;;;;;;7.70;2.03;;;10.10;99.90;;;9.49;100.00;101405.31;4184126;28;20021;-80
2023/11/21 03:40:22;;;;;;;7.18;1.52;;;10.20;99.90;;;9.57;100.00;101408.13;4185143;28;20400;-81
2023/11/21 03:42:23;;;;;;;12.13;2.03;;;10.20;99.90;;;9.62;100.00;101405.91;4185343;28;20029;-80
2023/11/21 03:44:24;;;;;;;9.05;1.67;;;10.30;99.90;;;9.70;100.00;101412.19;4183770;28;20045;-80
2023/11/21 03:46:25;;;;;;;6.05;1.33;;;10.30;99.90;;;9.72;100.00;101412.91;4158842;28;20037;-81
2023/11/21 03:48:26;;;;;;;6.68;1.40;;;10.30;99.90;;;9.79;100.00;101414.03;4151158;28;20425;-80
2023/11/21 03:50:30;;;;;;;6.95;1.50;;;10.40;99.90;;;9.84;100.00;101421.53;4152361;28;20029;-80
2023/11/21 03:52:31;;;;;;;6.43;1.42;;;10.40;99.90;;;9.87;100.00;101410.72;4158910;28;20029;-80
2023/11/21 03:54:31;;;;;;;7.55;2.00;;;10.50;99.90;;;9.92;100.00;101413.75;4168636;28;20411;-80
2023/11/21 03:56:32;;;;;;;8.18;1.73;;;10.50;99.90;;;9.97;100.00;101419.50;4168542;28;20029;-80
2023/11/21 03:58:34;;;;;;;6.43;1.33;;;10.60;99.90;;;9.99;100.00;101422.81;4168454;28;20488;-80
2023/11/21 04:00:34;;;;;;;5.55;1.15;;;10.60;99.90;;;10.00;100.00;101421.84;4168601;28;20025;-81
2023/11/21 04:02:35;;;;;;;8.50;2.15;;;10.60;99.90;;;10.00;100.00;101427.94;4167421;28;20040;-81
2023/11/21 04:04:36;;;;;;;8.07;1.60;;;10.60;99.90;;;10.01;100.00;101426.97;4167396;28;20025;-80
2023/11/21 04:06:37;;;;;;;11.57;2.45;;;10.60;99.90;;;10.00;100.00;101425.28;4168589;28;20036;-80
2023/11/21 04:08:38;;;;;;;9.35;1.60;;;10.60;99.90;;;9.97;100.00;101419.50;4168608;28;20100;-81
2023/11/21 04:10:39;;;;;;;6.35;1.60;;;10.60;99.90;;;9.96;100.00;101425.72;4168551;28;20084;-80
2023/11/21 04:12:40;;;;;;;11.85;1.88;;;10.60;99.90;;;9.96;100.00;101426.56;4168273;28;20037;-81
2023/11/21 04:14:41;;;;;;;6.13;2.13;;;10.60;99.90;;;9.95;100.00;101430.16;4167109;28;20025;-80
2023/11/21 04:16:42;;;;;;;6.53;1.23;;;10.60;99.90;;;9.93;100.00;101424.19;4168647;28;20034;-81
2023/11/21 04:18:43;;;;;;;9.05;1.75;;;10.60;99.90;;;9.94;100.00;101420.59;4168467;28;20025;-80
2023/11/21 04:20:44;;;;;;;8.15;2.13;;;10.60;99.90;;;9.96;100.00;101426.56;4168332;28;20499;-80
2023/11/21 04:22:45;;;;;;;10.63;1.90;;;10.60;99.90;;;9.90;100.00;101421.81;4155859;28;20018;-80
2023/11/21 04:24:45;;;;;;;8.00;1.30;;;10.60;99.90;;;9.86;100.00;101415.16;4152189;28;20450;-80
2023/11/21 04:26:46;;;;;;;7.05;1.52;;;10.60;99.90;;;9.84;100.00;101421.53;4152092;28;20022;-80
2023/11/21 04:28:47;;;;;;;6.78;1.42;;;10.50;99.90;;;9.81;100.00;101429.69;4166954;28;20025;-80
2023/11/21 04:30:48;;;;;;;6.68;1.20;;;10.50;99.90;;;9.77;100.00;101431.75;4152153;28;20477;-81
2023/11/21 04:32:50;;;;;;;4.25;1.33;;;10.50;99.90;;;9.79;100.00;101429.84;4152000;28;20038;-80
2023/11/21 04:34:51;;;;;;;8.63;1.30;;;10.50;99.90;;;9.80;100.00;101434.13;4152050;28;20396;-81
2023/11/21 04:36:52;;;;;;;5.85;1.13;;;10.50;99.90;;;9.80;100.00;101443.81;4167025;28;20029;-80
2023/11/21 04:38:53;;;;;;;7.38;2.03;;;10.50;99.90;;;9.78;100.00;101443.97;4150708;28;20077;-81
2023/11/21 04:40:53;;;;;;;5.68;1.65;;;10.50;99.90;;;9.73;100.00;101440.06;4151959;28;20037;-81
2023/11/21 04:42:54;;;;;;;5.43;1.65;;;10.40;99.90;;;9.70;100.00;101438.56;4150631;28;20026;-80
2023/11/21 04:44:55;;;;;;;8.13;2.45;;;10.40;99.90;;;9.68;100.00;101437.81;4171421;28;20056;-80
2023/11/21 04:46:56;;;;;;;7.00;1.60;;;10.40;99.90;;;9.67;100.00;101435.34;4167000;28;20025;-80
2023/11/21 04:48:56;;;;;;;10.35;1.80;;;10.30;99.90;;;9.63;100.00;101440.03;4184670;28;20078;-80
2023/11/21 04:50:58;;;;;;;7.45;1.50;;;10.30;99.90;;;9.61;100.00;101434.06;4183611;28;20033;-80
2023/11/21 04:52:59;;;;;;;4.85;1.73;;;10.30;99.90;;;9.57;100.00;101432.66;4162819;28;20089;-80
2023/11/21 04:55:01;;;;;;;2.85;1.13;;;10.20;99.90;;;9.44;100.00;101440.78;4181838;28;20033;-81
2023/11/21 04:57:02;;;;;;;7.32;1.45;;;10.20;99.90;;;9.41;100.00;101445.47;4183718;28;20029;-80
2023/11/21 04:59:04;;;;;;;6.63;1.40;;;10.20;99.90;;;9.42;100.00;101447.16;4184475;28;20029;-81
2023/11/21 05:01:07;;;;;;;3.20;1.20;;;10.10;99.90;;;9.39;100.00;101445.63;4184328;28;20036;-80
2023/11/21 05:03:09;;;;;;;4.38;1.23;;;10.10;99.90;;;9.33;100.00;101447.94;4184500;28;20017;-80
2023/11/21 05:05:10;;;;;;;3.83;1.35;;;10.10;99.90;;;9.28;100.00;101458.03;4184430;28;20064;-80
2023/11/21 05:07:11;;;;;;;8.55;1.75;;;10.00;99.90;;;9.21;100.00;101460.34;4169757;28;20026;-81
2023/11/21 05:09:12;;;;;;;13.20;1.63;;;9.90;99.90;;;9.13;100.00;101462.78;4169703;28;20022;-80
2023/11/21 05:11:27;;;;;;;7.28;1.60;;;9.80;99.90;;;9.11;100.00;101474.41;4187323;28;20395;-80
2023/11/21 05:13:28;;;;;;;;;;;9.70;99.90;;;9.07;100.00;101471.22;4187823;28;20500;-79
2023/11/21 05:15:29;;;;;;;10.88;2.20;;;9.80;99.90;;;9.10;100.00;101475.38;4186095;28;19943;-80
2023/11/21 05:17:30;;;;;;;6.60;2.28;;;9.80;99.90;;;9.09;100.00;101474.53;4187449;28;20025;-81
2023/11/21 05:19:32;;;;;;;10.38;2.47;;;9.80;99.90;;;9.12;100.00;101481.34;4187239;28;20024;-80
2023/11/21 05:21:33;;;;;;;6.38;2.67;;;9.80;99.90;;;9.14;100.00;101479.44;4186125;28;20075;-80
2023/11/21 05:23:34;;;;;;;7.47;2.05;;;9.80;99.90;;;9.22;100.00;101490.13;4186106;28;20435;-80
2023/11/21 05:25:35;;;;;;;9.18;1.58;;;9.80;99.90;;;9.29;100.00;101493.91;4187264;28;20021;-80
2023/11/21 05:27:36;;;;;;;9.98;3.17;;;9.80;99.90;;;9.37;100.00;101491.47;4185882;28;20582;-81
2023/11/21 05:29:37;;;;;;;5.72;1.70;;;9.90;99.90;;;9.44;100.00;101495.25;4187330;28;20021;-81
2023/11/21 05:31:38;;;;;;;8.35;2.17;;;10.00;99.90;;;9.53;100.00;101499.72;4187009;28;20029;-81
2023/11/21 05:33:39;;;;;;;6.38;2.03;;;10.10;99.90;;;9.56;100.00;101496.03;4187205;28;20059;-81
2023/11/21 05:35:40;;;;;;;8.43;2.10;;;10.20;99.90;;;9.59;100.00;101490.50;4186997;28;20031;-81
2023/11/21 05:37:45;;;;;;;5.47;1.63;;;10.20;99.90;;;9.60;100.00;101492.13;4187221;28;20029;-80
2023/11/21 05:39:46;;;;;;;8.68;3.00;;;10.20;99.90;;;9.60;100.00;101485.09;4175821;28;20068;-80
2023/11/21 05:41:47;;;;;;;8.95;1.38;;;10.20;99.90;;;9.62;100.00;101491.03;4169279;28;20021;-80
2023/11/21 05:43:48;;;;;;;4.60;1.67;;;10.20;99.90;;;9.61;100.00;101499.09;4171856;28;20029;-80
2023/11/21 05:45:49;;;;;;;12.07;2.55;;;10.20;99.90;;;9.54;100.00;101490.03;4169236;28;20058;-80
2023/11/21 05:47:50;;;;;;;5.22;1.40;;;10.20;99.90;;;9.49;100.00;101490.44;4186856;28;20025;-80
2023/11/21 05:49:52;;;;;;;10.30;2.00;;;10.10;99.90;;;9.51;100.00;101493.75;4186807;28;20032;-80
2023/11/21 05:51:56;;;;;;;6.63;1.85;;;10.10;99.90;;;9.47;100.00;101494.97;4186068;28;20095;-80
2023/11/21 05:53:57;;;;;;;7.57;2.05;;;10.20;99.90;;;9.48;100.00;101501.09;4180762;28;20531;-80
2023/11/21 05:55:58;;;;;;;5.03;1.60;;;10.10;99.90;;;9.46;100.00;101501.22;4170419;28;20029;-80
2023/11/21 05:57:59;;;;;;;4.60;1.45;;;10.10;99.90;;;9.44;100.00;101497.88;4170092;28;20037;-80
2023/11/21 06:00:00;;;;;;;13.73;2.40;;;10.10;99.90;;;9.53;100.00;101506.81;4170139;28;20025;-81
2023/11/21 06:02:02;;;;;;;7.45;1.92;;;10.10;99.90;;;9.61;100.00;101512.25;4170333;28;20109;-81
2023/11/21 06:04:03;;;;;;;13.65;1.92;;;10.20;99.90;;;9.71;100.00;101503.44;4170190;28;20032;-80
2023/11/21 06:06:04;;;;;;;5.28;1.48;;;10.30;99.90;;;9.73;100.00;101504.16;4170118;28;20022;-80
2023/11/21 06:08:07;;;;;;;4.43;1.45;;;10.30;99.90;;;9.74;100.00;101511.06;4168844;28;20030;-80
2023/11/21 06:10:12;;;;;;;12.27;1.95;;;10.30;99.90;;;9.79;100.00;101508.88;4170124;28;20025;-80
2023/11/21 06:12:13;;;;;;;6.38;2.00;;;10.40;99.90;;;9.83;100.00;101507.63;4168957;28;20527;-80
2023/11/21 06:14:17;;;;;;;7.68;1.55;;;10.40;99.90;;;9.83;100.00;101505.00;4183892;28;20024;-81
2023/11/21 06:16:19;;;;;;;;;;;10.50;99.90;;;9.80;100.00;101505.28;4170899;28;20026;-81
2023/11/21 06:18:20;;;;;;;6.25;1.40;;;10.50;99.90;;;9.81;100.00;101506.94;4168875;28;19959;-80
2023/11/21 06:20:22;;;;;;;9.55;1.73;;;10.50;99.90;;;9.89;100.00;101507.09;4169918;28;20037;-80
2023/11/21 06:22:23;;;;;;;7.50;2.03;;;10.50;99.90;;;9.89;100.00;101515.00;4168731;28;20092;-80
2023/11/21 06:24:24;;;;;;;7.38;1.65;;;10.50;99.90;;;9.93;100.00;101519.06;4169758;28;20028;-81
2023/11/21 06:26:25;;;;;;;11.00;2.15;;;10.60;99.90;;;9.94;100.00;101520.75;4180694;28;20396;-80
2023/11/21 06:28:26;;;;;;;9.27;1.48;;;10.60;99.90;;;9.94;100.00;101523.38;4168330;28;20053;-80
2023/11/21 06:30:28;;;;;;;6.72;2.22;;;10.60;99.90;;;9.95;100.00;101529.47;4186116;28;20086;-80
2023/11/21 06:32:30;;;;;;;11.88;2.78;;;10.60;99.90;;;10.00;100.00;101516.75;4184351;28;20032;-80
2023/11/21 06:34:31;;;;;;;7.00;2.08;;;10.60;99.90;;;10.03;100.00;101525.19;4186261;28;20036;-81
2023/11/21 06:36:31;;;;;;;9.98;2.30;;;10.70;99.90;;;10.07;100.00;101532.81;4186282;28;20063;-80
2023/11/21 06:38:32;;;;;;;8.18;1.63;;;10.70;99.90;;;10.04;100.00;101528.66;4186174;28;20525;-80
2023/11/21 06:40:34;;;;;;;5.68;1.65;;;10.70;99.90;;;10.05;100.00;101529.50;4185885;28;20036;-81
2023/11/21 06:42:35;;;;;;;10.00;1.55;;;10.70;99.90;;;10.05;100.00;101527.72;4180569;28;20380;-81
2023/11/21 06:44:37;;;;;;;8.95;2.30;;;10.70;99.90;;;10.04;100.00;101533.94;4176563;28;20040;-81
2023/11/21 06:46:42;;;;;;;8.27;2.17;;;10.70;99.90;;;10.00;100.00;101537.81;4158180;28;20056;-80
2023/11/21 06:48:43;;;;;;;8.82;1.50;;;10.60;99.90;;;9.95;100.00;101538.19;4152882;28;20030;-80
2023/11/21 06:50:44;;;;;;;9.68;2.25;;;10.60;99.90;;;9.95;100.00;101540.84;4159466;28;20097;-79
2023/11/21 06:52:44;;;;;;;10.95;2.08;;;10.60;99.90;;;9.93;100.00;101537.50;4155258;28;20092;-80
2023/11/21 06:54:47;;;;;;;9.15;1.75;;;10.60;99.90;;;9.91;100.00;101544.72;4153032;28;20533;-80
2023/11/21 06:56:48;;;;;;;10.20;2.05;;;10.60;99.90;;;9.88;100.00;101550.25;4167908;28;20029;-79
2023/11/21 06:58:49;;;;;;;9.90;1.65;;;10.50;99.90;;;9.90;100.00;101550.13;4155920;28;20021;-81
2023/11/21 07:00:52;;;;;;;12.75;2.95;;;10.50;99.90;;;9.87;100.00;101556.50;4169354;28;20053;-79
2023/11/21 07:02:53;;;;;;;12.25;2.08;;;10.50;99.90;;;9.85;100.00;101553.16;4160654;28;20017;-79
2023/11/21 07:04:54;;;;;;;10.13;2.20;;;10.50;99.90;;;9.85;100.00;101553.16;4152697;28;20104;-79
2023/11/21 07:06:55;;;;;;;6.82;1.60;;;10.50;99.90;;;9.85;100.00;101561.06;4152856;28;20377;-80
2023/11/21 07:08:55;;;;;;;8.60;1.50;;;10.50;99.90;;;9.87;100.00;101566.19;4151694;28;20022;-81
2023/11/21 07:10:56;;;;;;;10.65;1.65;;;10.60;99.90;;;9.82;100.00;101565.75;4152854;28;20033;-79
2023/11/21 07:12:57;;;;;;;9.57;2.03;;;10.50;99.90;;;9.86;100.00;101570.63;4157693;28;20086;-80
2023/11/21 07:14:58;;;;;;;5.97;1.40;;;10.50;99.90;;;9.84;100.00;101577.84;4152848;28;20087;-80
2023/11/21 07:16:59;;;;;;;9.48;1.70;;;10.50;99.90;;;9.77;100.00;101576.66;4151593;28;20050;-80
2023/11/21 07:19:00;;;;;;;11.65;1.80;;;10.50;99.90;;;9.70;100.00;101578.19;4152682;28;20092;-82
2023/11/21 07:21:01;;;;;;;11.32;2.22;;;10.40;99.90;;;9.62;100.00;101579.75;4151246;28;20034;-81
2023/11/21 07:23:03;;;;;;;6.93;1.55;;;10.30;99.90;;;9.59;100.00;101583.50;4160138;28;20091;-80
2023/11/21 07:25:05;;;;;;;9.20;1.42;;;10.20;99.90;;;9.59;100.00;101590.59;4161805;28;20018;-85
2023/11/21 07:27:06;;;;;;;9.18;1.63;;;10.20;99.90;;;9.57;100.00;101592.50;4158656;28;20038;-83
2023/11/21 07:29:06;;;;;;;6.63;1.90;;;10.20;99.90;;;9.61;100.00;101596.56;4152708;28;20029;-82
2023/11/21 07:31:07;;;;;;;10.38;2.58;;;10.20;99.90;;;9.57;100.00;101593.34;4152302;28;20026;-82
2023/11/21 07:33:08;;;;;;;8.73;1.85;;;10.20;99.90;;;9.56;100.00;101596.91;4153181;28;20034;-82
2023/11/21 07:35:09;;;;;;;8.75;1.95;;;10.30;99.90;;;9.62;100.00;101603.47;4151332;28;20140;-82
2023/11/21 07:37:10;;;;;;;6.75;1.55;;;10.20;99.90;;;9.64;100.00;101604.19;4151218;28;20025;-81
2023/11/21 07:39:10;;;;;;;10.18;2.78;;;10.30;99.90;;;9.67;100.00;101602.16;4151261;28;20061;-82
2023/11/21 07:41:15;;;;;;;10.32;1.88;;;10.30;99.90;;;9.73;100.00;101609.53;4152525;28;20038;-82
2023/11/21 07:43:16;;;;;;;9.23;1.80;;;10.40;99.90;;;9.77;100.00;101620.63;4162232;28;20033;-80
2023/11/21 07:45:17;;;;;;;6.80;2.85;;;10.40;99.90;;;9.78;100.00;101611.75;4179389;28;20044;-80
2023/11/21 07:47:18;;;;;;;11.00;1.70;;;10.40;99.90;;;9.84;100.00;101616.50;4168784;28;20396;-79
2023/11/21 07:49:21;;;;;;;8.43;1.45;;;10.50;99.90;;;9.82;100.00;101624.56;4167428;28;20030;-83
2023/11/21 07:51:22;;;;;;;8.00;2.03;;;10.40;99.90;;;9.79;100.00;101632.72;4167732;28;20029;-81
2023/11/21 07:53:22;;;;;;;8.18;1.50;;;10.40;99.90;;;9.81;100.00;101635.22;4171586;28;20033;-81
2023/11/21 07:55:24;;;;;;;8.77;1.75;;;10.40;99.90;;;9.82;100.00;101634.28;4151009;28;20083;-82
2023/11/21 07:57:26;;;;;;;7.28;1.55;;;10.40;99.90;;;9.87;100.00;101632.06;4168302;28;20084;-82
2023/11/21 07:59:26;;;;;;;7.93;2.05;;;10.50;99.90;;;9.86;100.00;101630.38;4167336;28;20056;-82
2023/11/21 08:01:27;;;;;;;8.07;1.58;;;10.50;99.90;;;9.90;100.00;101643.19;4150703;28;20030;-82
2023/11/21 08:03:30;;;;;;;5.95;1.27;;;10.60;99.90;;;9.94;100.00;101644.63;4162567;28;20504;-82
2023/11/21 08:05:31;;;;;;;11.18;2.08;;;10.50;99.90;;;9.97;100.00;101649.59;4183933;28;20087;-82
2023/11/21 08:07:31;;;;;;;4.90;1.30;;;10.60;99.90;;;10.01;100.00;101644.91;4174651;28;20029;-82
2023/11/21 08:09:34;;;;;;;6.30;1.40;;;10.60;99.90;;;10.05;100.00;101648.97;4168470;28;20029;-81
2023/11/21 08:11:35;;;;;;;5.82;1.27;;;10.70;99.90;;;10.08;100.00;101647.84;4168719;28;20049;-81
2023/11/21 08:13:36;;;;;;;5.07;1.20;;;10.70;99.90;;;10.05;100.00;101645.47;4161316;28;20052;-81
2023/11/21 08:15:37;;;;;;;9.00;1.80;;;10.70;99.90;;;10.06;100.00;101657.72;4150994;28;20056;-83
2023/11/21 08:17:38;;;;;;;3.75;1.05;;;10.70;99.90;;;10.03;100.00;101659.63;4168406;28;20030;-82
2023/11/21 08:19:39;;;;;;;11.57;1.40;;;10.70;99.90;;;10.03;100.00;101656.97;4168587;28;20029;-83
2023/11/21 08:21:40;;;;;;;6.53;1.65;;;10.70;99.90;;;10.08;100.00;101655.78;4168543;28;20033;-81
2023/11/21 08:23:41;;;;;;;6.97;1.75;;;10.70;99.90;;;10.16;100.00;101661.25;4180200;28;20033;-80